Time;durP1;ratioP1;P1;durP2;ratioP2;P2;SDS_P1;SDS_P2;PMS_P1;PMS_P2;Temp;Humidity;BMP_temperature;BMP_pressure;BME280_temperature;BME280_humidity;BME280_pressure;Samples;Min_cycle;Max_cycle;Signal;HPM_P1;HPM_P2
2021/01/12 00:02:27;;;;;;;13.55;10.95;;;-1.20;99.90;;;;;;6099320;23;20261;-84
2021/01/12 00:07:59;;;;;;;16.38;12.18;;;-1.10;99.90;;;;;;6104069;23;20230;-83
2021/01/12 00:10:34;;;;;;;12.60;10.55;;;-1.20;99.90;;;;;;6109770;23;20206;-84
2021/01/12 00:13:23;;;;;;;17.15;12.70;;;-1.10;99.90;;;;;;6102856;23;20182;-84
2021/01/12 00:22:21;;;;;;;14.52;12.45;;;-0.90;99.90;;;;;;6101076;23;20191;-84
2021/01/12 00:24:54;;;;;;;17.13;12.15;;;-1.00;99.90;;;;;;6104512;23;20212;-84
2021/01/12 00:27:53;;;;;;;11.93;9.95;;;-0.90;99.90;;;;;;6104845;23;20181;-85
2021/01/12 00:30:34;;;;;;;14.25;11.00;;;-0.90;99.90;;;;;;6105137;23;20218;-83
2021/01/12 00:33:18;;;;;;;18.30;11.30;;;-0.90;99.90;;;;;;6106528;23;20190;-85
2021/01/12 00:36:02;;;;;;;14.85;10.55;;;-1.00;99.90;;;;;;6104671;23;20268;-84
2021/01/12 00:45:02;;;;;;;18.73;12.35;;;-1.00;99.90;;;;;;6085100;23;20206;-84
2021/01/12 00:47:44;;;;;;;15.35;11.10;;;-0.90;99.90;;;;;;6098096;23;20179;-84
2021/01/12 00:50:17;;;;;;;13.38;11.18;;;-0.90;99.90;;;;;;6098195;23;20212;-84
2021/01/12 00:53:10;;;;;;;18.23;11.50;;;-0.90;99.90;;;;;;6097544;23;20211;-84
2021/01/12 00:55:42;;;;;;;12.70;10.40;;;-0.90;99.90;;;;;;6098176;23;20200;-84
2021/01/12 00:58:45;;;;;;;20.35;11.05;;;-1.00;99.90;;;;;;6101280;23;20232;-85
2021/01/12 01:04:20;;;;;;;11.20;9.88;;;-1.00;99.90;;;;;;6101642;23;20175;-84
2021/01/12 01:07:11;;;;;;;;;;;;;;;;;;;;;
2021/01/12 01:10:09;;;;;;;;;;;;;;;;;;;;;
2021/01/12 01:16:28;;;;;;;14.93;11.30;;;-0.80;99.90;;;;;;6103119;23;20217;-84
2021/01/12 01:18:57;;;;;;;12.90;10.50;;;-0.80;99.90;;;;;;6106661;23;20180;-83
2021/01/12 01:21:32;;;;;;;15.63;10.60;;;-0.70;99.90;;;;;;6106344;23;20200;-84
2021/01/12 01:24:28;;;;;;;15.52;10.38;;;-0.60;99.90;;;;;;6107825;23;20190;-84
2021/01/12 01:27:05;;;;;;;15.85;10.35;;;-0.60;99.90;;;;;;6078523;23;20188;-83
2021/01/12 01:35:41;;;;;;;14.20;9.48;;;-0.50;99.90;;;;;;6095446;23;20171;-84
2021/01/12 01:38:36;;;;;;;15.27;12.27;;;-0.50;99.90;;;;;;6103537;23;20215;-84
2021/01/12 01:41:16;;;;;;;8.20;7.40;;;-0.40;99.90;;;;;;6105388;23;20204;-84
2021/01/12 01:44:18;;;;;;;15.27;11.13;;;-0.40;99.90;;;;;;6106448;23;20200;-84
2021/01/12 01:47:09;;;;;;;;;;;;;;;;;;;;;
2021/01/12 01:49:46;;;;;;;;;;;;;;;;;;;;;
2021/01/12 01:52:25;;;;;;;11.52;7.53;;;-0.30;99.90;;;;;;6106758;23;20156;-84
2021/01/12 01:58:09;;;;;;;11.65;9.43;;;-0.10;99.90;;;;;;6082336;23;20188;-84
2021/01/12 02:00:45;;;;;;;14.55;11.60;;;-0.30;99.90;;;;;;6108792;23;20284;-84
2021/01/12 02:03:32;;;;;;;10.90;9.15;;;-0.20;99.90;;;;;;6108098;23;20187;-84
2021/01/12 02:06:24;;;;;;;8.70;7.25;;;-0.20;99.90;;;;;;6109109;23;20168;-85
2021/01/12 02:12:31;;;;;;;14.10;9.50;;;-0.20;99.90;;;;;;6098443;23;20272;-84
2021/01/12 02:15:18;;;;;;;12.27;7.35;;;-0.30;99.90;;;;;;6098084;23;20526;-84
2021/01/12 02:18:17;;;;;;;7.65;5.93;;;-0.30;99.90;;;;;;6099176;23;20169;-83
2021/01/12 02:21:09;;;;;;;11.30;8.20;;;-0.20;99.90;;;;;;6101561;23;20203;-84
2021/01/12 02:23:49;;;;;;;11.00;8.25;;;-0.30;99.90;;;;;;6102673;23;20207;-83
2021/01/12 02:26:28;;;;;;;7.00;6.30;;;-0.20;99.90;;;;;;6101979;23;20172;-83
2021/01/12 02:29:03;;;;;;;9.13;7.25;;;-0.20;99.90;;;;;;6101023;23;20227;-84
2021/01/12 02:34:23;;;;;;;8.90;8.00;;;-0.10;99.90;;;;;;6099087;23;20185;-84
2021/01/12 02:36:54;;;;;;;7.03;5.60;;;-0.10;99.90;;;;;;6103870;23;20184;-84
2021/01/12 02:39:50;;;;;;;9.40;6.85;;;-0.10;99.90;;;;;;6104844;23;20197;-83
2021/01/12 02:42:26;;;;;;;5.15;4.70;;;-0.10;99.90;;;;;;6104223;23;20734;-83
2021/01/12 02:47:45;;;;;;;7.82;5.35;;;-0.10;99.90;;;;;;6109477;23;20584;-83
2021/01/12 02:50:16;;;;;;;7.78;6.25;;;-0.10;99.90;;;;;;6109368;23;20210;-84
2021/01/12 02:52:46;;;;;;;6.75;6.05;;;-0.10;99.90;;;;;;6109333;23;20181;-85
2021/01/12 02:55:22;;;;;;;8.13;6.72;;;0.00;99.90;;;;;;6110334;23;20176;-84
2021/01/12 02:57:57;;;;;;;8.18;6.03;;;0.00;99.90;;;;;;6105791;23;20487;-83
2021/01/12 03:00:46;;;;;;;;;;;;;;;;;;;;;
2021/01/12 03:03:23;;;;;;;5.60;5.10;;;0.00;99.90;;;;;;6098614;23;20664;-83
2021/01/12 03:05:58;;;;;;;11.15;7.35;;;0.10;99.90;;;;;;6098046;23;20168;-83
2021/01/12 03:08:47;;;;;;;8.63;6.43;;;0.10;99.90;;;;;;6098453;23;20203;-84
2021/01/12 03:14:43;;;;;;;;;;;;;;;;;;;;;
2021/01/12 03:18:06;;;;;;;;;;;;;;;;;;;;;
2021/01/12 03:20:58;;;;;;;6.30;5.70;;;0.30;99.90;;;;;;6108815;23;20201;-84
2021/01/12 03:27:26;;;;;;;6.10;3.90;;;0.40;99.90;;;;;;6107658;23;20523;-84
2021/01/12 03:30:35;;;;;;;8.45;5.93;;;0.50;99.90;;;;;;6109065;23;20203;-84
2021/01/12 03:33:02;;;;;;;9.68;5.93;;;0.40;99.90;;;;;;6051745;23;20182;-84
2021/01/12 03:36:08;;;;;;;7.10;5.35;;;0.50;99.90;;;;;;6110920;23;20165;-84
2021/01/12 03:39:24;;;;;;;7.45;4.85;;;0.50;99.90;;;;;;6109845;23;20176;-84
2021/01/12 03:42:31;;;;;;;;;;;;;;;;;;;;;
2021/01/12 03:45:07;;;;;;;5.40;4.85;;;0.60;99.90;;;;;;6104000;23;20202;-83
2021/01/12 03:47:51;;;;;;;4.93;4.35;;;0.70;99.90;;;;;;6098165;23;20203;-84
2021/01/12 03:53:51;;;;;;;9.45;7.30;;;0.70;99.90;;;;;;6101761;23;20510;-84
2021/01/12 03:59:03;;;;;;;5.75;4.88;;;0.70;99.90;;;;;;6100349;23;20169;-84
2021/01/12 04:01:30;;;;;;;4.43;4.00;;;0.70;99.90;;;;;;6103811;23;20207;-84
2021/01/12 04:03:57;;;;;;;5.80;4.45;;;0.60;99.90;;;;;;6104077;23;20235;-84
2021/01/12 04:09:12;;;;;;;6.15;4.50;;;0.70;99.90;;;;;;6102848;23;20200;-83
2021/01/12 04:12:06;;;;;;;5.30;4.55;;;0.70;99.90;;;;;;6105339;23;20172;-84
2021/01/12 04:18:21;;;;;;;8.88;7.00;;;0.70;99.90;;;;;;6110183;23;20185;-84
2021/01/12 04:23:44;;;;;;;9.75;7.03;;;0.80;99.90;;;;;;6082347;23;20644;-84
2021/01/12 04:30:00;;;;;;;6.25;5.63;;;0.90;99.90;;;;;;5990717;23;20211;-84
2021/01/12 04:32:53;;;;;;;6.38;4.47;;;0.90;99.90;;;;;;6038231;23;20248;-84
2021/01/12 04:35:25;;;;;;;5.97;5.00;;;0.80;99.90;;;;;;6036357;23;20178;-83
2021/01/12 04:38:07;;;;;;;5.60;4.40;;;0.90;99.90;;;;;;6040066;23;20260;-83
2021/01/12 04:43:31;;;;;;;10.85;6.75;;;0.80;99.90;;;;;;6091959;23;20497;-84
2021/01/12 04:46:45;;;;;;;5.05;4.13;;;0.80;99.90;;;;;;6103674;23;20181;-84
2021/01/12 04:49:32;;;;;;;;;;;;;;;;;;;;;
2021/01/12 04:52:21;;;;;;;5.45;4.47;;;0.80;99.90;;;;;;6080937;23;20187;-83
2021/01/12 04:59:22;;;;;;;6.07;4.97;;;0.70;99.90;;;;;;5882539;24;20187;-83
2021/01/12 05:01:55;;;;;;;6.80;5.75;;;0.80;99.90;;;;;;5898412;23;20190;-83
2021/01/12 05:04:39;;;;;;;10.80;7.63;;;0.70;99.90;;;;;;6051628;23;20186;-84
2021/01/12 05:07:18;;;;;;;7.40;4.47;;;0.70;99.90;;;;;;6097904;23;20177;-84
2021/01/12 05:10:04;;;;;;;8.00;5.95;;;0.70;99.90;;;;;;6114181;23;20207;-84
2021/01/12 05:12:35;;;;;;;6.78;4.97;;;0.70;99.90;;;;;;6114057;23;20169;-84
2021/01/12 05:15:40;;;;;;;9.95;7.57;;;0.70;99.90;;;;;;6112526;23;20164;-84
2021/01/12 05:18:23;;;;;;;9.05;7.15;;;0.70;99.90;;;;;;6105812;23;20206;-83
2021/01/12 05:21:01;;;;;;;7.43;5.78;;;0.80;99.90;;;;;;6098643;23;20200;-83
2021/01/12 05:23:42;;;;;;;8.85;5.82;;;0.80;99.90;;;;;;6098341;23;20179;-84
2021/01/12 05:26:23;;;;;;;11.98;7.18;;;0.80;99.90;;;;;;6098483;23;20513;-84
2021/01/12 05:28:52;;;;;;;8.23;6.70;;;0.80;99.90;;;;;;6099262;23;20223;-84
2021/01/12 07:23:11;;;;;;;6.07;4.65;;;1.60;99.90;;;;;;6030006;23;20181;-82
2021/01/12 07:26:03;;;;;;;4.30;3.88;;;1.60;99.90;;;;;;6073674;23;20185;-85
2021/01/12 07:28:35;;;;;;;6.03;4.05;;;1.70;99.90;;;;;;6135080;23;20191;-85
2021/01/12 07:31:08;;;;;;;5.40;3.50;;;1.60;99.90;;;;;;6133803;23;20258;-85
2021/01/12 07:45:07;;;;;;;5.32;4.90;;;1.70;99.90;;;;;;6017708;23;20183;-86
2021/01/12 07:51:20;;;;;;;7.00;5.22;;;1.80;99.90;;;;;;5962648;23;20198;-85
2021/01/12 07:53:50;;;;;;;6.10;4.78;;;1.80;99.90;;;;;;6097320;23;20187;-86
2021/01/12 07:56:25;;;;;;;4.03;3.72;;;1.90;99.90;;;;;;6137068;23;20180;-84
2021/01/12 07:58:52;;;;;;;4.10;3.70;;;1.90;99.90;;;;;;6140415;23;20198;-85
2021/01/12 08:01:41;;;;;;;;;;;;;;;;;;;;;
2021/01/12 08:04:10;;;;;;;6.03;5.38;;;2.00;99.90;;;;;;6140289;23;20180;-85
2021/01/12 08:06:47;;;;;;;4.10;2.63;;;2.00;99.90;;;;;;6151239;23;20183;-83
2021/01/12 08:09:23;;;;;;;6.85;5.50;;;2.10;99.90;;;;;;6141910;23;20258;-84
2021/01/12 08:11:58;;;;;;;7.10;6.15;;;2.10;99.90;;;;;;6138171;23;20184;-85
2021/01/12 08:14:31;;;;;;;4.60;4.15;;;2.10;99.90;;;;;;6138305;23;20160;-85
2021/01/12 08:17:08;;;;;;;6.68;5.30;;;2.10;99.90;;;;;;6139853;23;20180;-85
2021/01/12 08:20:07;;;;;;;4.65;4.22;;;2.10;99.90;;;;;;5144082;27;20569;-86
2021/01/12 08:22:51;;;;;;;7.38;5.50;;;2.10;99.90;;;;;;5144535;28;20206;-85
2021/01/12 08:25:21;;;;;;;5.70;4.30;;;2.20;99.90;;;;;;5141908;27;20213;-86
2021/01/12 08:28:14;;;;;;;6.72;5.53;;;2.20;99.90;;;;;;5139135;28;20222;-86
2021/01/12 08:30:54;;;;;;;8.43;5.22;;;2.20;99.90;;;;;;5021122;28;20235;-86
2021/01/12 08:33:40;;;;;;;4.38;3.95;;;2.20;99.90;;;;;;5137642;28;20198;-85
2021/01/12 08:36:15;;;;;;;3.67;3.40;;;2.20;99.90;;;;;;5144679;28;20203;-85
2021/01/12 08:45:25;;;;;;;4.97;2.28;;;2.20;99.90;;;;;;5136384;27;20302;-85
2021/01/12 08:51:19;;;;;;;3.55;2.72;;;2.10;99.90;;;;;;5014019;28;20235;-86
2021/01/12 08:54:25;;;;;;;8.32;5.03;;;2.10;99.90;;;;;;5042644;28;20184;-86
2021/01/12 09:03:53;;;;;;;7.85;4.07;;;2.20;99.90;;;;;;5001406;28;20197;-86
2021/01/12 09:10:12;;;;;;;5.40;4.90;;;2.40;99.90;;;;;;5012705;28;20207;-86
2021/01/12 09:13:09;;;;;;;5.10;4.00;;;2.40;99.90;;;;;;5060277;27;20217;-86
2021/01/12 09:19:14;;;;;;;3.50;3.20;;;2.30;99.90;;;;;;5029494;28;20221;-87
2021/01/12 09:22:17;;;;;;;4.07;3.20;;;2.40;99.90;;;;;;5075703;28;20220;-86
2021/01/12 09:29:02;;;;;;;;;;;;;;;;;;;;;
2021/01/12 09:36:01;;;;;;;4.30;2.90;;;2.50;99.90;;;;;;4899739;29;20219;-89
2021/01/12 10:24:22;;;;;;;2.45;2.25;;;2.80;99.90;;;;;;5336244;22;20262;-86
2021/01/12 10:27:03;;;;;;;2.53;2.28;;;2.80;99.90;;;;;;4998974;28;20193;-87
2021/01/12 10:29:47;;;;;;;2.15;1.80;;;2.80;99.90;;;;;;4979809;28;20193;-87
2021/01/12 10:38:41;;;;;;;2.30;2.20;;;2.70;99.90;;;;;;4925557;29;20230;-89
2021/01/12 10:44:29;;;;;;;2.55;2.35;;;2.60;99.90;;;;;;5455415;23;20224;-87
2021/01/12 10:47:43;;;;;;;1.67;1.58;;;2.60;99.90;;;;;;4998914;28;20211;-87
2021/01/12 10:53:18;;;;;;;5.55;1.88;;;2.50;99.90;;;;;;4976184;28;20452;-86
2021/01/12 10:55:47;;;;;;;1.67;1.58;;;2.50;99.90;;;;;;4974369;28;20197;-86
2021/01/12 11:04:41;;;;;;;2.13;1.58;;;2.40;99.90;;;;;;4965326;28;20201;-88
2021/01/12 11:07:32;;;;;;;6.75;3.05;;;2.50;99.90;;;;;;4974633;28;20209;-87
2021/01/12 11:12:52;;;;;;;1.17;1.15;;;2.40;99.90;;;;;;4975157;28;20201;-86
2021/01/12 11:15:19;;;;;;;1.35;1.30;;;2.50;99.90;;;;;;4967182;28;20878;-83
2021/01/12 11:18:21;;;;;;;1.33;0.80;;;2.60;99.90;;;;;;4966806;28;20217;-88
2021/01/12 11:28:35;;;;;;;0.80;0.73;;;2.60;99.90;;;;;;4987594;28;20221;-85
2021/01/12 11:31:35;;;;;;;1.20;1.10;;;2.60;99.90;;;;;;4989257;28;20275;-88
2021/01/12 11:34:03;;;;;;;1.33;1.00;;;2.50;99.90;;;;;;4981819;28;20232;-86
2021/01/12 11:37:14;;;;;;;2.03;1.92;;;2.50;99.90;;;;;;4988769;28;20236;-88
2021/01/12 11:39:41;;;;;;;1.75;1.55;;;2.50;99.90;;;;;;4938465;28;20238;-83
2021/01/12 11:42:10;;;;;;;0.98;0.98;;;2.60;99.90;;;;;;4991676;28;20216;-85
2021/01/12 11:44:37;;;;;;;0.50;0.50;;;2.60;99.90;;;;;;4989843;28;20220;-87
2021/01/12 11:47:08;;;;;;;1.42;1.33;;;2.60;99.90;;;;;;4990768;28;20219;-83
2021/01/12 11:49:35;;;;;;;1.00;1.00;;;2.60;99.90;;;;;;4989120;28;20209;-84
2021/01/12 11:52:11;;;;;;;1.00;1.00;;;2.60;99.90;;;;;;4989583;28;20271;-85
2021/01/12 11:54:54;;;;;;;1.02;0.95;;;2.60;99.90;;;;;;4989477;28;20204;-85
2021/01/12 11:57:42;;;;;;;0.85;0.70;;;2.60;99.90;;;;;;4972202;28;20212;-85
2021/01/12 12:00:55;;;;;;;1.10;1.10;;;2.60;99.90;;;;;;4976107;28;20229;-85
2021/01/12 12:03:40;;;;;;;1.30;1.20;;;2.60;99.90;;;;;;4965646;28;20209;-86
2021/01/12 12:06:20;;;;;;;0.88;0.77;;;2.60;99.90;;;;;;4972123;28;20209;-85
2021/01/12 12:22:49;;;;;;;1.00;1.00;;;2.40;99.90;;;;;;4901691;29;20242;-85
2021/01/12 12:51:55;;;;;;;3.80;1.05;;;2.60;99.90;;;;;;4698247;29;20256;-85
2021/01/12 12:54:57;;;;;;;1.48;0.80;;;2.50;99.90;;;;;;4921724;29;20218;-85
2021/01/12 13:01:20;;;;;;;1.13;0.80;;;2.60;99.90;;;;;;4850120;29;20229;-84
2021/01/12 14:44:29;;;;;;;;;;;;;;;;;;;;;
2021/01/12 16:01:29;;;;;;;;;;;;;;;;;;;;;
2021/01/12 16:07:14;;;;;;;0.60;0.60;;;2.60;99.90;;;;;;4971367;28;20350;-84
2021/01/12 16:12:57;;;;;;;0.40;0.40;;;2.70;99.90;;;;;;4940653;28;20212;-87
2021/01/12 17:22:23;;;;;;;0.98;0.95;;;3.10;99.90;;;;;;5068878;23;20239;-87
2021/01/12 17:28:05;;;;;;;2.45;1.40;;;2.90;99.90;;;;;;5725028;23;20240;-87
2021/01/12 17:30:58;;;;;;;1.60;1.50;;;2.90;99.90;;;;;;4964394;28;20241;-88
2021/01/12 17:36:15;;;;;;;1.20;1.10;;;3.00;99.90;;;;;;4963980;28;20609;-85
2021/01/12 17:39:15;;;;;;;1.42;1.30;;;2.90;99.90;;;;;;4976999;28;20228;-86
2021/01/12 17:41:42;;;;;;;1.95;1.63;;;3.00;99.90;;;;;;4938522;29;20294;-84
2021/01/12 17:44:22;;;;;;;2.15;1.75;;;3.00;99.90;;;;;;4941085;29;20210;-85
2021/01/12 17:46:51;;;;;;;1.20;1.10;;;3.00;99.90;;;;;;4963328;28;20220;-85
2021/01/12 17:49:21;;;;;;;1.30;1.13;;;3.00;99.90;;;;;;4972324;28;20212;-85
2021/01/12 17:51:52;;;;;;;1.10;1.10;;;3.00;99.90;;;;;;4978154;28;20217;-85
2021/01/12 17:54:27;;;;;;;1.30;1.02;;;2.90;99.90;;;;;;4977740;28;20213;-84
2021/01/12 17:59:40;;;;;;;1.52;1.30;;;3.00;99.90;;;;;;4959096;28;20300;-85
2021/01/12 18:02:10;;;;;;;2.17;1.98;;;3.00;99.90;;;;;;4959265;28;20224;-85
2021/01/12 18:04:37;;;;;;;1.60;1.50;;;2.90;99.90;;;;;;4978125;28;20299;-85
2021/01/12 18:07:33;;;;;;;1.70;1.40;;;3.00;99.90;;;;;;4978026;28;20319;-86
2021/01/12 18:16:25;;;;;;;1.85;1.60;;;2.90;99.90;;;;;;4937667;29;20221;-85
2021/01/12 18:19:04;;;;;;;1.55;1.45;;;2.80;99.90;;;;;;4974557;28;20232;-85
2021/01/12 18:21:33;;;;;;;2.00;1.90;;;2.90;99.90;;;;;;4978297;28;20228;-83
2021/01/12 22:47:27;;;;;;;12.18;7.05;;;2.00;99.90;;;;;;4966639;28;20745;-84
2021/01/12 22:53:35;;;;;;;9.20;6.95;;;2.10;99.90;;;;;;4902647;28;20215;-85
2021/01/12 22:56:04;;;;;;;7.53;5.28;;;2.10;99.90;;;;;;4956964;29;20220;-85
2021/01/12 22:58:34;;;;;;;7.18;5.95;;;2.10;99.90;;;;;;4956116;29;20243;-84
2021/01/12 23:01:06;;;;;;;7.55;6.20;;;2.10;99.90;;;;;;4956434;28;20228;-84
2021/01/12 23:03:33;;;;;;;7.97;6.70;;;2.10;99.90;;;;;;4956425;28;20217;-84
2021/01/12 23:06:06;;;;;;;6.63;5.93;;;2.10;99.90;;;;;;4956206;29;20224;-84
2021/01/12 23:08:34;;;;;;;10.40;8.45;;;2.00;99.90;;;;;;4956348;29;20217;-85
2021/01/12 23:11:00;;;;;;;11.88;8.60;;;1.90;99.90;;;;;;4956087;28;20573;-84
2021/01/12 23:13:28;;;;;;;12.20;7.80;;;1.80;99.90;;;;;;4955687;28;20209;-84
2021/01/12 23:15:54;;;;;;;6.93;6.30;;;1.80;99.90;;;;;;4956144;29;20272;-84
2021/01/12 23:18:22;;;;;;;8.60;7.70;;;1.80;99.90;;;;;;4956506;29;20205;-84
2021/01/12 23:20:49;;;;;;;8.40;6.28;;;1.70;99.90;;;;;;4955833;28;20327;-84
2021/01/12 23:23:20;;;;;;;11.88;7.32;;;1.80;99.90;;;;;;4955982;28;20244;-84
2021/01/12 23:25:48;;;;;;;9.30;7.50;;;1.70;99.90;;;;;;4956326;28;20571;-84
2021/01/12 23:28:14;;;;;;;8.15;7.43;;;1.70;99.90;;;;;;4956120;29;20216;-84
2021/01/12 23:30:40;;;;;;;10.27;8.02;;;1.70;99.90;;;;;;4957883;28;20758;-84
2021/01/12 23:33:07;;;;;;;8.80;7.60;;;1.80;99.90;;;;;;4968033;28;20240;-84
2021/01/12 23:35:36;;;;;;;8.93;8.10;;;1.80;99.90;;;;;;4958694;29;20220;-84
2021/01/12 23:38:05;;;;;;;9.98;7.40;;;1.70;99.90;;;;;;4957284;29;20213;-85
2021/01/12 23:40:33;;;;;;;9.38;7.45;;;1.70;99.90;;;;;;4956966;28;20251;-84
2021/01/12 23:43:01;;;;;;;8.80;7.90;;;1.80;99.90;;;;;;4956659;29;20205;-84
2021/01/12 23:45:28;;;;;;;14.25;8.23;;;1.80;99.90;;;;;;4956744;28;20221;-84
2021/01/12 23:47:54;;;;;;;10.00;8.23;;;1.80;99.90;;;;;;4956886;28;20221;-84
2021/01/12 23:50:21;;;;;;;9.32;8.13;;;1.90;99.90;;;;;;4956326;28;20241;-84
2021/01/12 23:52:47;;;;;;;8.90;7.80;;;1.90;99.90;;;;;;4956416;29;20379;-84
2021/01/12 23:55:14;;;;;;;9.88;8.05;;;2.00;99.90;;;;;;4956391;29;20213;-84
2021/01/12 23:57:41;;;;;;;10.60;8.20;;;2.00;99.90;;;;;;4956648;29;20217;-84
